DW7248 Weather Reports


Display with metric or nautical units.
time (UTC)temp
F
wind
direction
speed
MPH
gust
MPH
rain 1hr
in
rain 24hr
in
rain mn
in
humidity
%
barometer
mb
20240530090844 43 251 0.0 0.0 0.00 0.00 0.00 94 1019.7
20240530080844 44 251 0.0 0.0 0.00 0.03 0.00 95 1019.3
20240530073842 43 251 0.0 0.0 0.00 0.06 0.00 95 1019.3
20240530070842 43 251 0.0 0.0 0.00 0.10 0.00 93 1019.3
20240530063841 44 251 0.0 0.0 0.00 0.10 0.00 92 1019.3
20240530060842 44 251 0.0 0.0 0.00 0.11 0.00 89 1019.4
20240530053840 46 251 0.0 0.0 0.00 0.12 0.00 85 1019.6
20240530043841 50 252 0.0 1.0 0.00 0.14 0.12 74 1019.7
20240530040839 50 322 0.0 0.0 0.00 0.14 0.12 72 1019.8
20240530030837 51 241 0.0 0.0 0.00 0.15 0.12 70 1019.7
20240530023834 51 333 0.0 0.0 0.00 0.15 0.12 78 1019.6
20240530020834 50 333 0.0 0.0 0.00 0.15 0.12 79 1019.2
20240530013836 53 333 0.0 0.0 0.00 0.15 0.12 74 1019.5
20240530010834 55 333 0.0 0.0 0.00 0.15 0.12 67 1019.4
20240530003834 57 340 0.0 0.0 0.00 0.15 0.12 63 1019.4
20240529233830 60 19 0.0 0.0 0.00 0.20 0.12 59 1018.9
20240529230828 60 78 2.0 9.0 0.00 0.22 0.12 57 1018.7
20240529220830 61 79 4.0 10.0 0.00 0.26 0.12 61 1018.8
20240529213828 61 30 0.0 11.0 0.00 0.26 0.12 64 1018.9
20240529210826 61 19 2.0 13.0 0.00 0.26 0.12 69 1018.7
20240529203825 62 338 3.0 12.0 0.00 0.26 0.12 66 1018.9
20240529200825 63 67 2.0 11.0 0.00 0.26 0.12 65 1018.9
20240529193823 63 310 1.0 13.0 0.00 0.26 0.12 70 1019.0
20240529190824 64 342 1.0 9.0 0.00 0.26 0.12 68 1018.9
20240529183822 63 212 2.0 10.0 0.00 0.26 0.12 71 1019.5
20240529180820 62 359 2.0 10.0 0.00 0.26 0.12 72 1019.5
20240529173819 61 323 3.0 9.0 0.00 0.26 0.12 75 1019.4
20240529170818 61 43 2.0 10.0 0.00 0.26 0.12 73 1019.4
20240529163816 60 60 2.0 11.0 0.00 0.26 0.12 73 1019.5
20240529160816 60 342 1.0 8.0 0.00 0.26 0.12 74 1019.4
20240529153816 60 46 0.0 1.0 0.00 0.26 0.12 76 1019.1
20240529143816 58 45 0.0 8.0 0.00 0.26 0.12 81 1018.6
20240529140814 59 350 1.0 7.0 0.00 0.26 0.12 83 1018.4
20240529133814 56 320 0.0 0.0 0.00 0.26 0.12 87 1018.5
20240529123814 55 331 0.0 6.0 0.00 0.27 0.12 91 1017.4
20240529120814 55 310 0.0 0.0 0.00 0.27 0.12 93 1016.7
20240529110815 53 359 0.0 2.0 0.00 0.27 0.12 98 1015.6
20240529103814 53 33 0.0 7.0 0.00 0.27 0.12 98 1015.1
20240529093812 53 43 0.0 8.0 0.01 0.27 0.12 98 1014.3